Capitol Logistics 211


MMMX
Benito Juárez International Airport
Mexico City, MX
KMIA
Miami International Airport
Miami, US

Route Details

Aircraft Information
Primary: Boeing 767-300BDSF
Backup: Not Available
Route Data
Distance: 1145nm
Sched. Duration: 3h 00m
Avg. Duration: 2h 56m (-44m)
Times Flown: 13
Recm'd Route: CCUDA M580 NATLE CYY SSCOT5
Planned Altitude: 35,000ft
Origin Wx: MMMX 282145Z 22003KT 6SM FEW025 26/01 A3031 NOSIG RMK 8/100 HZY
Dest. Wx: KMIA 282153Z 31007G16KT 10SM CLR 19/04 A3019 RMK AO2 SLP222 T01940039
Notes:

Financial History
Total Freight: 1,149,374lbs
Average Load: 88,413lbs/flt
Fuel Used: 381,200lbs
Avg. Fuel Used: 29,323lbs/flt
Fuel Expense: $304,960
Avg. Fuel Expense: $23,458
Avg. Fuel Cost: $0.80/lbs
Total Gross Income: $2,884,376
Pilot Pay: $2,497
Total Expenses: $312,189
Total Revenue: $2,259,176
Average Revenue: $221,875.10